Queen Of Cowichan — CZ4990 — position and weather

sailwx.info

Track history (hours):
 
Tides and Currents Weather Stations Pressure Air Temp Water Temp Dewpoint Dewpoint Depression Visibility Wind Speed Wind Dir Waves Ship Positions

Queen Of Cowichan

Last reported at 2018-Jun-22 05:48 UTC. Time now 2018-Jun-22 09:21 UTC.
Position N 49°18' W 123°31'.

Length 139 m.

Type: Passenger vessel. MMSI: 316001251.

Date/timePositionNaut miles runAvg speedWind from/ knotsBaromVisibWave heightAir tempDewpointWater temp
2018-Jun-22 05:48N 49°18' W 123°31'619.1
2018-Jun-22 05:29N 49°20' W 123°22'5 5.3
2018-Jun-22 04:37N 49°23' W 123°17'219.2
2018-Jun-22 04:30N 49°22' W 123°19'1219.5
2018-Jun-22 03:54N 49°17' W 123°35'7 4.2
2018-Jun-22 02:07N 49°15' W 123°47'720.3
2018-Jun-22 01:47N 49°18' W 123°37'620.0
2018-Jun-22 01:29N 49°19' W 123°27'8 7.1
2018-Jun-22 00:18N 49°23' W 123°16'515.9
2018-Jun-22 00:01N 49°20' W 123°21'15 6.2
2018-Jun-21 21:37N 49°16' W 123°43'319.6
2018-Jun-21 21:27N 49°17' W 123°39'919.8
2018-Jun-21 21:00N 49°19' W 123°25'7 5.2
2018-Jun-21 19:40N 49°23' W 123°17'318.7
2018-Jun-21 19:30N 49°21' W 123°20'1019.2
2018-Jun-21 19:00N 49°17' W 123°34'8 3.7
2018-Jun-21 16:57N 49°16' W 123°45'919.5
2018-Jun-21 16:30N 49°18' W 123°32'918.6
2018-Jun-21 16:00N 49°22' W 123°19'2 3.0
2018-Jun-21 15:12N 49°23' W 123°17'2 9.4
2018-Jun-21 15:00N 49°22' W 123°19'17 2.0
2018-Jun-21 06:18N 49°16' W 123°44'618.9
2018-Jun-21 05:59N 49°18' W 123°35'1018.6
2018-Jun-21 05:28N 49°20' W 123°21'4 5.1
2018-Jun-21 04:40N 49°23' W 123°16'213.6
2018-Jun-21 04:30N 49°22' W 123°19'16 5.8
2018-Jun-21 01:46N 49°16' W 123°42'619.9
2018-Jun-21 01:26N 49°18' W 123°32'919.1
2018-Jun-21 01:00N 49°21' W 123°20'2 2.1
2018-Jun-21 00:01N 49°23' W 123°18'118.3
2018-Jun-20 23:57N 49°22' W 123°19'15 5.7
2018-Jun-20 21:19N 49°16' W 123°41'819.3
2018-Jun-20 20:55N 49°19' W 123°29'10 7.6
2018-Jun-20 19:40N 49°23' W 123°16'214.5
2018-Jun-20 19:29N 49°22' W 123°19'21 8.9
2018-Jun-20 17:06N 49°14' W 123°50'819.6
2018-Jun-20 16:40N 49°17' W 123°38'519.6
2018-Jun-20 16:25N 49°18' W 123°31'818.2
2018-Jun-20 16:00N 49°21' W 123°20'3 3.6
2018-Jun-20 15:07N 49°23' W 123°16'213.6
2018-Jun-20 14:59N 49°22' W 123°19'918.6
2018-Jun-20 14:30N 49°18' W 123°31'18 2.8
2018-Jun-20 08:03N 49°12' W 123°56'919.9
2018-Jun-20 07:35N 49°16' W 123°43'320.0
2018-Jun-20 07:26N 49°17' W 123°39'920.2
2018-Jun-20 06:59N 49°19' W 123°25'7 8.1
2018-Jun-20 06:07N 49°23' W 123°16'1 9.2
2018-Jun-20 06:00N 49°23' W 123°18'1319.4
2018-Jun-20 05:19N 49°17' W 123°36'5 2.8
2018-Jun-20 03:33N 49°16' W 123°43'520.0
2018-Jun-20 03:18N 49°18' W 123°36'620.0
2018-Jun-20 03:00N 49°19' W 123°27'6 5.4
2018-Jun-20 01:49N 49°22' W 123°19'719.2
2018-Jun-20 01:29N 49°18' W 123°27'9 3.8
2018-Jun-19 23:07N 49°16' W 123°40'319.4
2018-Jun-19 22:58N 49°17' W 123°36'919.8
2018-Jun-19 22:29N 49°20' W 123°22'3 2.0
2018-Jun-19 21:10N 49°21' W 123°19'320.3
2018-Jun-19 21:00N 49°19' W 123°22'1319.8
2018-Jun-19 20:21N 49°16' W 123°42'3 1.4
2018-Jun-19 17:51N 49°15' W 123°47'1020.3
2018-Jun-19 17:22N 49°18' W 123°32'820.7
2018-Jun-19 16:59N 49°20' W 123°21'2 3.5
2018-Jun-19 16:30N 49°22' W 123°19'0 1.0
2018-Jun-19 16:00N 49°21' W 123°20'3 3.3
2018-Jun-19 15:10N 49°23' W 123°16'212.1
2018-Jun-19 15:00N 49°22' W 123°19'1018.3
2018-Jun-19 14:27N 49°17' W 123°33'3 0.4
2018-Jun-19 06:02N 49°17' W 123°37'318.7
2018-Jun-19 05:52N 49°18' W 123°33'8 5.9
2018-Jun-19 04:30N 49°20' W 123°21'1019.9
2018-Jun-19 04:00N 49°16' W 123°35'6 3.0
2018-Jun-19 02:08N 49°16' W 123°43'419.8
2018-Jun-19 01:55N 49°17' W 123°37'2 0.8
2018-Jun-18 23:43N 49°16' W 123°35'2 0.3
2018-Jun-18 19:10N 49°17' W 123°33'520.3
2018-Jun-18 18:56N 49°16' W 123°40'3 1.7
2018-Jun-18 17:01N 49°15' W 123°45'119.5
2018-Jun-18 16:58N 49°16' W 123°44'1119.9
2018-Jun-18 16:27N 49°19' W 123°28'5 3.8
2018-Jun-18 15:00N 49°20' W 123°20'1018.6
2018-Jun-18 14:27N 49°16' W 123°35'6 0.8
2018-Jun-18 06:19N 49°16' W 123°45'718.7
2018-Jun-18 05:57N 49°18' W 123°35'9 5.9
2018-Jun-18 04:20N 49°20' W 123°21'719.6
2018-Jun-18 03:59N 49°17' W 123°30'13 6.8
2018-Jun-18 02:03N 49°14' W 123°50'319.1
2018-Jun-18 01:53N 49°16' W 123°45'919.9
2018-Jun-18 01:25N 49°18' W 123°32'819.5
2018-Jun-18 01:00N 49°21' W 123°20'0 0.3
2018-Jun-17 23:58N 49°21' W 123°20'17 6.9
2018-Jun-17 21:26N 49°16' W 123°45'1119.8
2018-Jun-17 20:53N 49°19' W 123°29'7 5.0
2018-Jun-17 19:29N 49°22' W 123°19'1019.6
2018-Jun-17 18:59N 49°17' W 123°32'8 4.1
2018-Jun-17 17:00N 49°16' W 123°44'1119.7
2018-Jun-17 16:28N 49°19' W 123°29'9 7.6
2018-Jun-17 15:15N 49°23' W 123°16'415.2
2018-Jun-17 14:59N 49°20' W 123°21'918.6
2018-Jun-17 14:29N 49°17' W 123°34'4 0.4
2018-Jun-17 05:45N 49°19' W 123°29'418.6
2018-Jun-17 05:30N 49°19' W 123°22'5 6.1
2018-Jun-17 04:41N 49°23' W 123°16'314.3
2018-Jun-17 04:30N 49°21' W 123°20'1019.8
2018-Jun-17 04:00N 49°17' W 123°33'6 3.1
2018-Jun-17 02:06N 49°16' W 123°42'919.8
2018-Jun-17 01:38N 49°19' W 123°28'420.2
2018-Jun-17 01:27N 49°19' W 123°23'3 3.0
2018-Jun-17 00:22N 49°22' W 123°19'719.4
2018-Jun-17 00:00N 49°18' W 123°28'9 3.9
2018-Jun-16 21:47N 49°16' W 123°41'619.6
2018-Jun-16 21:27N 49°18' W 123°32'10 6.3
2018-Jun-16 19:53N 49°22' W 123°18'818.8
2018-Jun-16 19:29N 49°18' W 123°28'10 4.3
2018-Jun-16 17:06N 49°16' W 123°43'519.2
2018-Jun-16 16:51N 49°17' W 123°36'719.7
2018-Jun-16 16:28N 49°19' W 123°25'6 5.0
2018-Jun-16 15:10N 49°23' W 123°17'419.2
2018-Jun-16 14:59N 49°20' W 123°21'918.6
2018-Jun-16 14:30N 49°16' W 123°33'14 1.8
2018-Jun-16 06:40N 49°14' W 123°54'719.0
2018-Jun-16 06:18N 49°16' W 123°43'819.1
2018-Jun-16 05:53N 49°18' W 123°32'718.8
2018-Jun-16 05:30N 49°20' W 123°21'4 5.3
2018-Jun-16 04:42N 49°23' W 123°16'416.4
2018-Jun-16 04:29N 49°21' W 123°20'1118.4
2018-Jun-16 03:52N 49°16' W 123°36'4 1.8
2018-Jun-16 01:24N 49°19' W 123°31'718.7
2018-Jun-16 01:00N 49°21' W 123°20'2 1.9
2018-Jun-16 00:00N 49°23' W 123°18'18 6.9
2018-Jun-15 21:27N 49°16' W 123°43'919.9
2018-Jun-15 20:59N 49°18' W 123°30'10 7.4
2018-Jun-15 19:38N 49°23' W 123°16'313.7
2018-Jun-15 19:25N 49°21' W 123°20'14 5.3
2018-Jun-15 16:44N 49°16' W 123°40'719.8
2018-Jun-15 16:22N 49°18' W 123°30'719.3
2018-Jun-15 15:59N 49°21' W 123°19'2 3.0
2018-Jun-15 15:10N 49°23' W 123°16'213.1
2018-Jun-15 15:00N 49°22' W 123°19'918.3
2018-Jun-15 14:29N 49°17' W 123°31'9 1.1
2018-Jun-15 06:20N 49°16' W 123°45'718.4
2018-Jun-15 05:59N 49°18' W 123°35'918.5
2018-Jun-15 05:30N 49°20' W 123°22'5 5.9
2018-Jun-15 04:41N 49°23' W 123°16'315.3
2018-Jun-15 04:30N 49°21' W 123°20'917.5
2018-Jun-15 03:59N 49°17' W 123°32'8 3.6
2018-Jun-15 01:52N 49°16' W 123°44'920.0
2018-Jun-15 01:25N 49°19' W 123°30'10 7.9
2018-Jun-15 00:08N 49°23' W 123°16'215.6
2018-Jun-15 00:00N 49°22' W 123°19'1119.3
2018-Jun-14 23:24N 49°17' W 123°35'5 2.6
2018-Jun-14 21:26N 49°16' W 123°43'920.5
2018-Jun-14 20:59N 49°19' W 123°29'7 4.8
2018-Jun-14 19:30N 49°22' W 123°19'1319.3
2018-Jun-14 18:50N 49°16' W 123°37'4 2.0
2018-Jun-14 16:51N 49°16' W 123°43'719.7
2018-Jun-14 16:30N 49°18' W 123°33'918.9
2018-Jun-14 16:00N 49°21' W 123°20'2 2.4
2018-Jun-14 15:05N 49°23' W 123°18'220.2
2018-Jun-14 15:00N 49°22' W 123°19'918.2
2018-Jun-14 14:30N 49°17' W 123°31'8 0.7
2018-Jun-14 03:34N 49°16' W 123°44'120.2
2018-Jun-14 03:30N 49°16' W 123°42'1120.1
2018-Jun-14 02:58N 49°19' W 123°26'7 8.4
2018-Jun-14 02:05N 49°23' W 123°16'215.0
2018-Jun-14 01:58N 49°25' W 123°17'816.4
2018-Jun-14 01:30N 49°26' W 123°28'8 3.0
2018-Jun-13 22:59N 49°21' W 123°19'918.8
2018-Jun-13 22:29N 49°17' W 123°32'12 3.7
2018-Jun-13 19:09N 49°14' W 123°50'5 0.3
2018-Jun-13 03:35N 49°16' W 123°43'1119.5
2018-Jun-13 03:02N 49°19' W 123°27'020.6
2018-Jun-13 03:00N 49°19' W 123°27'8 8.3
2018-Jun-13 02:04N 49°23' W 123°16'312.8
2018-Jun-13 01:49N 49°26' W 123°19'618.5
2018-Jun-13 01:29N 49°26' W 123°28'1 2.7
2018-Jun-13 00:59N 49°25' W 123°26'6 3.1
2018-Jun-12 22:59N 49°23' W 123°18'1019.1
2018-Jun-12 22:29N 49°17' W 123°30'  
Track history (hours):
 
Tides and Currents Weather Stations Pressure Air Temp Water Temp Dewpoint Dewpoint Depression Visibility Wind Speed Wind Dir Waves Ship Positions

Queen Of Cowichan

Last reported at 2018-Jun-22 05:48 UTC. Time now 2018-Jun-22 09:21 UTC.
Position N 49°18' W 123°31'.

Length 139 m.

Type: Passenger vessel. MMSI: 316001251.

Date/timePositionNaut miles runAvg speedWind from/ knotsBaromVisibWave heightAir tempDewpointWater temp
2018-Jun-22 05:48N 49°18' W 123°31'619.1
2018-Jun-22 05:29N 49°20' W 123°22'5 5.3
2018-Jun-22 04:37N 49°23' W 123°17'219.2
2018-Jun-22 04:30N 49°22' W 123°19'1219.5
2018-Jun-22 03:54N 49°17' W 123°35'7 4.2
2018-Jun-22 02:07N 49°15' W 123°47'720.3
2018-Jun-22 01:47N 49°18' W 123°37'620.0
2018-Jun-22 01:29N 49°19' W 123°27'8 7.1
2018-Jun-22 00:18N 49°23' W 123°16'515.9
2018-Jun-22 00:01N 49°20' W 123°21'15 6.2
2018-Jun-21 21:37N 49°16' W 123°43'319.6
2018-Jun-21 21:27N 49°17' W 123°39'919.8
2018-Jun-21 21:00N 49°19' W 123°25'7 5.2
2018-Jun-21 19:40N 49°23' W 123°17'318.7
2018-Jun-21 19:30N 49°21' W 123°20'1019.2
2018-Jun-21 19:00N 49°17' W 123°34'8 3.7
2018-Jun-21 16:57N 49°16' W 123°45'919.5
2018-Jun-21 16:30N 49°18' W 123°32'918.6
2018-Jun-21 16:00N 49°22' W 123°19'2 3.0
2018-Jun-21 15:12N 49°23' W 123°17'2 9.4
2018-Jun-21 15:00N 49°22' W 123°19'17 2.0
2018-Jun-21 06:18N 49°16' W 123°44'618.9
2018-Jun-21 05:59N 49°18' W 123°35'1018.6
2018-Jun-21 05:28N 49°20' W 123°21'4 5.1
2018-Jun-21 04:40N 49°23' W 123°16'213.6
2018-Jun-21 04:30N 49°22' W 123°19'16 5.8
2018-Jun-21 01:46N 49°16' W 123°42'619.9
2018-Jun-21 01:26N 49°18' W 123°32'919.1
2018-Jun-21 01:00N 49°21' W 123°20'2 2.1
2018-Jun-21 00:01N 49°23' W 123°18'118.3
2018-Jun-20 23:57N 49°22' W 123°19'15 5.7
2018-Jun-20 21:19N 49°16' W 123°41'819.3
2018-Jun-20 20:55N 49°19' W 123°29'10 7.6
2018-Jun-20 19:40N 49°23' W 123°16'214.5
2018-Jun-20 19:29N 49°22' W 123°19'21 8.9
2018-Jun-20 17:06N 49°14' W 123°50'819.6
2018-Jun-20 16:40N 49°17' W 123°38'519.6
2018-Jun-20 16:25N 49°18' W 123°31'818.2
2018-Jun-20 16:00N 49°21' W 123°20'3 3.6
2018-Jun-20 15:07N 49°23' W 123°16'213.6
2018-Jun-20 14:59N 49°22' W 123°19'918.6
2018-Jun-20 14:30N 49°18' W 123°31'18 2.8
2018-Jun-20 08:03N 49°12' W 123°56'919.9
2018-Jun-20 07:35N 49°16' W 123°43'320.0
2018-Jun-20 07:26N 49°17' W 123°39'920.2
2018-Jun-20 06:59N 49°19' W 123°25'7 8.1
2018-Jun-20 06:07N 49°23' W 123°16'1 9.2
2018-Jun-20 06:00N 49°23' W 123°18'1319.4
2018-Jun-20 05:19N 49°17' W 123°36'5 2.8
2018-Jun-20 03:33N 49°16' W 123°43'520.0
2018-Jun-20 03:18N 49°18' W 123°36'620.0
2018-Jun-20 03:00N 49°19' W 123°27'6 5.4
2018-Jun-20 01:49N 49°22' W 123°19'719.2
2018-Jun-20 01:29N 49°18' W 123°27'9 3.8
2018-Jun-19 23:07N 49°16' W 123°40'319.4
2018-Jun-19 22:58N 49°17' W 123°36'919.8
2018-Jun-19 22:29N 49°20' W 123°22'3 2.0
2018-Jun-19 21:10N 49°21' W 123°19'320.3
2018-Jun-19 21:00N 49°19' W 123°22'1319.8
2018-Jun-19 20:21N 49°16' W 123°42'3 1.4
2018-Jun-19 17:51N 49°15' W 123°47'1020.3
2018-Jun-19 17:22N 49°18' W 123°32'820.7
2018-Jun-19 16:59N 49°20' W 123°21'2 3.5
2018-Jun-19 16:30N 49°22' W 123°19'0 1.0
2018-Jun-19 16:00N 49°21' W 123°20'3 3.3
2018-Jun-19 15:10N 49°23' W 123°16'212.1
2018-Jun-19 15:00N 49°22' W 123°19'1018.3
2018-Jun-19 14:27N 49°17' W 123°33'3 0.4
2018-Jun-19 06:02N 49°17' W 123°37'318.7
2018-Jun-19 05:52N 49°18' W 123°33'8 5.9
2018-Jun-19 04:30N 49°20' W 123°21'1019.9
2018-Jun-19 04:00N 49°16' W 123°35'6 3.0
2018-Jun-19 02:08N 49°16' W 123°43'419.8
2018-Jun-19 01:55N 49°17' W 123°37'2 0.8
2018-Jun-18 23:43N 49°16' W 123°35'2 0.3
2018-Jun-18 19:10N 49°17' W 123°33'520.3
2018-Jun-18 18:56N 49°16' W 123°40'3 1.7
2018-Jun-18 17:01N 49°15' W 123°45'119.5
2018-Jun-18 16:58N 49°16' W 123°44'1119.9
2018-Jun-18 16:27N 49°19' W 123°28'5 3.8
2018-Jun-18 15:00N 49°20' W 123°20'1018.6
2018-Jun-18 14:27N 49°16' W 123°35'6 0.8
2018-Jun-18 06:19N 49°16' W 123°45'718.7
2018-Jun-18 05:57N 49°18' W 123°35'9 5.9
2018-Jun-18 04:20N 49°20' W 123°21'719.6
2018-Jun-18 03:59N 49°17' W 123°30'13 6.8
2018-Jun-18 02:03N 49°14' W 123°50'319.1
2018-Jun-18 01:53N 49°16' W 123°45'919.9
2018-Jun-18 01:25N 49°18' W 123°32'819.5
2018-Jun-18 01:00N 49°21' W 123°20'0 0.3
2018-Jun-17 23:58N 49°21' W 123°20'17 6.9
2018-Jun-17 21:26N 49°16' W 123°45'1119.8
2018-Jun-17 20:53N 49°19' W 123°29'7 5.0
2018-Jun-17 19:29N 49°22' W 123°19'1019.6
2018-Jun-17 18:59N 49°17' W 123°32'8 4.1
2018-Jun-17 17:00N 49°16' W 123°44'1119.7
2018-Jun-17 16:28N 49°19' W 123°29'9 7.6
2018-Jun-17 15:15N 49°23' W 123°16'415.2
2018-Jun-17 14:59N 49°20' W 123°21'918.6
2018-Jun-17 14:29N 49°17' W 123°34'4 0.4
2018-Jun-17 05:45N 49°19' W 123°29'418.6
2018-Jun-17 05:30N 49°19' W 123°22'5 6.1
2018-Jun-17 04:41N 49°23' W 123°16'314.3
2018-Jun-17 04:30N 49°21' W 123°20'1019.8
2018-Jun-17 04:00N 49°17' W 123°33'6 3.1
2018-Jun-17 02:06N 49°16' W 123°42'919.8
2018-Jun-17 01:38N 49°19' W 123°28'420.2
2018-Jun-17 01:27N 49°19' W 123°23'3 3.0
2018-Jun-17 00:22N 49°22' W 123°19'719.4
2018-Jun-17 00:00N 49°18' W 123°28'9 3.9
2018-Jun-16 21:47N 49°16' W 123°41'619.6
2018-Jun-16 21:27N 49°18' W 123°32'10 6.3
2018-Jun-16 19:53N 49°22' W 123°18'818.8
2018-Jun-16 19:29N 49°18' W 123°28'10 4.3
2018-Jun-16 17:06N 49°16' W 123°43'519.2
2018-Jun-16 16:51N 49°17' W 123°36'719.7
2018-Jun-16 16:28N 49°19' W 123°25'6 5.0
2018-Jun-16 15:10N 49°23' W 123°17'419.2
2018-Jun-16 14:59N 49°20' W 123°21'918.6
2018-Jun-16 14:30N 49°16' W 123°33'14 1.8
2018-Jun-16 06:40N 49°14' W 123°54'719.0
2018-Jun-16 06:18N 49°16' W 123°43'819.1
2018-Jun-16 05:53N 49°18' W 123°32'718.8
2018-Jun-16 05:30N 49°20' W 123°21'4 5.3
2018-Jun-16 04:42N 49°23' W 123°16'416.4
2018-Jun-16 04:29N 49°21' W 123°20'1118.4
2018-Jun-16 03:52N 49°16' W 123°36'4 1.8
2018-Jun-16 01:24N 49°19' W 123°31'718.7
2018-Jun-16 01:00N 49°21' W 123°20'2 1.9
2018-Jun-16 00:00N 49°23' W 123°18'18 6.9
2018-Jun-15 21:27N 49°16' W 123°43'919.9
2018-Jun-15 20:59N 49°18' W 123°30'10 7.4
2018-Jun-15 19:38N 49°23' W 123°16'313.7
2018-Jun-15 19:25N 49°21' W 123°20'14 5.3
2018-Jun-15 16:44N 49°16' W 123°40'719.8
2018-Jun-15 16:22N 49°18' W 123°30'719.3
2018-Jun-15 15:59N 49°21' W 123°19'2 3.0
2018-Jun-15 15:10N 49°23' W 123°16'213.1
2018-Jun-15 15:00N 49°22' W 123°19'918.3
2018-Jun-15 14:29N 49°17' W 123°31'9 1.1
2018-Jun-15 06:20N 49°16' W 123°45'718.4
2018-Jun-15 05:59N 49°18' W 123°35'918.5
2018-Jun-15 05:30N 49°20' W 123°22'5 5.9
2018-Jun-15 04:41N 49°23' W 123°16'315.3
2018-Jun-15 04:30N 49°21' W 123°20'917.5
2018-Jun-15 03:59N 49°17' W 123°32'8 3.6
2018-Jun-15 01:52N 49°16' W 123°44'920.0
2018-Jun-15 01:25N 49°19' W 123°30'10 7.9
2018-Jun-15 00:08N 49°23' W 123°16'215.6
2018-Jun-15 00:00N 49°22' W 123°19'1119.3
2018-Jun-14 23:24N 49°17' W 123°35'5 2.6
2018-Jun-14 21:26N 49°16' W 123°43'920.5
2018-Jun-14 20:59N 49°19' W 123°29'7 4.8
2018-Jun-14 19:30N 49°22' W 123°19'1319.3
2018-Jun-14 18:50N 49°16' W 123°37'4 2.0
2018-Jun-14 16:51N 49°16' W 123°43'719.7
2018-Jun-14 16:30N 49°18' W 123°33'918.9
2018-Jun-14 16:00N 49°21' W 123°20'2 2.4
2018-Jun-14 15:05N 49°23' W 123°18'220.2
2018-Jun-14 15:00N 49°22' W 123°19'918.2
2018-Jun-14 14:30N 49°17' W 123°31'8 0.7
2018-Jun-14 03:34N 49°16' W 123°44'120.2
2018-Jun-14 03:30N 49°16' W 123°42'1120.1
2018-Jun-14 02:58N 49°19' W 123°26'7 8.4
2018-Jun-14 02:05N 49°23' W 123°16'215.0
2018-Jun-14 01:58N 49°25' W 123°17'816.4
2018-Jun-14 01:30N 49°26' W 123°28'8 3.0
2018-Jun-13 22:59N 49°21' W 123°19'918.8
2018-Jun-13 22:29N 49°17' W 123°32'12 3.7
2018-Jun-13 19:09N 49°14' W 123°50'5 0.3
2018-Jun-13 03:35N 49°16' W 123°43'1119.5
2018-Jun-13 03:02N 49°19' W 123°27'020.6
2018-Jun-13 03:00N 49°19' W 123°27'8 8.3
2018-Jun-13 02:04N 49°23' W 123°16'312.8
2018-Jun-13 01:49N 49°26' W 123°19'618.5
2018-Jun-13 01:29N 49°26' W 123°28'1 2.7
2018-Jun-13 00:59N 49°25' W 123°26'6 3.1
2018-Jun-12 22:59N 49°23' W 123°18'1019.1
2018-Jun-12 22:29N 49°17' W 123°30'  

Dump ship's entire track history